sensor_id;sensor_type;location;lat;lon;timestamp;P1;durP1;ratioP1;P2;durP2;ratioP2
27921;SDS011;15261;50.356;10.340;2022-12-18T00:00:23;30.87;;;18.80;;
27921;SDS011;15261;50.356;10.340;2022-12-18T00:02:59;29.23;;;17.50;;
27921;SDS011;15261;50.356;10.340;2022-12-18T00:05:35;39.93;;;19.40;;
27921;SDS011;15261;50.356;10.340;2022-12-18T00:08:01;31.27;;;18.80;;
27921;SDS011;15261;50.356;10.340;2022-12-18T00:10:28;32.00;;;19.00;;
27921;SDS011;15261;50.356;10.340;2022-12-18T00:12:54;31.90;;;18.30;;
27921;SDS011;15261;50.356;10.340;2022-12-18T00:15:20;30.97;;;18.10;;
27921;SDS011;15261;50.356;10.340;2022-12-18T00:17:45;37.37;;;19.10;;
27921;SDS011;15261;50.356;10.340;2022-12-18T00:20:11;32.77;;;18.53;;
27921;SDS011;15261;50.356;10.340;2022-12-18T00:22:36;31.53;;;18.23;;
27921;SDS011;15261;50.356;10.340;2022-12-18T00:25:02;35.87;;;19.27;;
27921;SDS011;15261;50.356;10.340;2022-12-18T00:27:28;33.93;;;19.03;;
27921;SDS011;15261;50.356;10.340;2022-12-18T00:29:53;34.60;;;19.23;;
27921;SDS011;15261;50.356;10.340;2022-12-18T00:32:19;29.00;;;17.13;;
27921;SDS011;15261;50.356;10.340;2022-12-18T00:34:44;32.90;;;19.07;;
27921;SDS011;15261;50.356;10.340;2022-12-18T00:37:10;29.10;;;17.53;;
27921;SDS011;15261;50.356;10.340;2022-12-18T00:39:36;28.93;;;17.77;;
27921;SDS011;15261;50.356;10.340;2022-12-18T00:42:01;29.77;;;18.43;;
27921;SDS011;15261;50.356;10.340;2022-12-18T00:44:45;28.20;;;17.17;;
27921;SDS011;15261;50.356;10.340;2022-12-18T00:47:10;34.40;;;18.57;;
27921;SDS011;15261;50.356;10.340;2022-12-18T00:49:36;30.53;;;18.67;;
27921;SDS011;15261;50.356;10.340;2022-12-18T00:52:02;35.20;;;20.23;;
27921;SDS011;15261;50.356;10.340;2022-12-18T00:54:27;30.87;;;19.73;;
27921;SDS011;15261;50.356;10.340;2022-12-18T00:56:53;32.23;;;20.73;;
27921;SDS011;15261;50.356;10.340;2022-12-18T00:59:27;37.97;;;21.97;;
27921;SDS011;15261;50.356;10.340;2022-12-18T01:01:52;41.37;;;23.63;;
27921;SDS011;15261;50.356;10.340;2022-12-18T01:04:18;33.67;;;20.27;;
27921;SDS011;15261;50.356;10.340;2022-12-18T01:16:18;35.77;;;19.27;;
27921;SDS011;15261;50.356;10.340;2022-12-18T01:22:07;33.77;;;18.97;;
27921;SDS011;15261;50.356;10.340;2022-12-18T01:27:34;34.57;;;18.13;;
27921;SDS011;15261;50.356;10.340;2022-12-18T01:29:59;34.13;;;18.87;;
27921;SDS011;15261;50.356;10.340;2022-12-18T01:32:25;30.77;;;18.90;;
27921;SDS011;15261;50.356;10.340;2022-12-18T01:34:50;33.27;;;19.47;;
27921;SDS011;15261;50.356;10.340;2022-12-18T01:37:16;32.63;;;18.83;;
27921;SDS011;15261;50.356;10.340;2022-12-18T01:39:42;33.63;;;18.57;;
27921;SDS011;15261;50.356;10.340;2022-12-18T01:42:11;32.27;;;18.27;;
27921;SDS011;15261;50.356;10.340;2022-12-18T01:47:44;31.60;;;18.60;;
27921;SDS011;15261;50.356;10.340;2022-12-18T01:53:15;32.50;;;18.27;;
27921;SDS011;15261;50.356;10.340;2022-12-18T01:55:45;33.80;;;18.20;;
27921;SDS011;15261;50.356;10.340;2022-12-18T01:58:14;36.83;;;20.57;;
27921;SDS011;15261;50.356;10.340;2022-12-18T02:00:41;36.27;;;20.97;;
27921;SDS011;15261;50.356;10.340;2022-12-18T02:03:06;38.73;;;20.43;;
27921;SDS011;15261;50.356;10.340;2022-12-18T02:05:35;40.23;;;23.33;;
27921;SDS011;15261;50.356;10.340;2022-12-18T02:08:29;36.00;;;20.70;;
27921;SDS011;15261;50.356;10.340;2022-12-18T02:16:51;34.57;;;19.43;;
27921;SDS011;15261;50.356;10.340;2022-12-18T02:27:08;31.60;;;17.77;;
27921;SDS011;15261;50.356;10.340;2022-12-18T02:29:51;30.83;;;18.23;;
27921;SDS011;15261;50.356;10.340;2022-12-18T02:32:24;27.43;;;17.63;;
27921;SDS011;15261;50.356;10.340;2022-12-18T02:34:56;30.20;;;18.60;;
27921;SDS011;15261;50.356;10.340;2022-12-18T02:37:23;31.07;;;18.33;;
27921;SDS011;15261;50.356;10.340;2022-12-18T02:39:51;35.00;;;17.03;;
27921;SDS011;15261;50.356;10.340;2022-12-18T02:42:19;32.10;;;18.63;;
27921;SDS011;15261;50.356;10.340;2022-12-18T02:44:49;30.70;;;18.20;;
27921;SDS011;15261;50.356;10.340;2022-12-18T02:47:20;29.53;;;18.03;;
27921;SDS011;15261;50.356;10.340;2022-12-18T02:55:15;49.97;;;27.67;;
27921;SDS011;15261;50.356;10.340;2022-12-18T02:57:54;48.43;;;27.13;;
27921;SDS011;15261;50.356;10.340;2022-12-18T03:00:39;125.20;;;57.27;;
27921;SDS011;15261;50.356;10.340;2022-12-18T03:03:14;154.43;;;68.03;;
27921;SDS011;15261;50.356;10.340;2022-12-18T03:05:47;95.37;;;47.07;;
27921;SDS011;15261;50.356;10.340;2022-12-18T03:08:36;99.57;;;46.53;;
27921;SDS011;15261;50.356;10.340;2022-12-18T03:11:11;80.17;;;40.83;;
27921;SDS011;15261;50.356;10.340;2022-12-18T03:16:17;55.70;;;30.27;;
27921;SDS011;15261;50.356;10.340;2022-12-18T03:18:52;57.60;;;29.67;;
27921;SDS011;15261;50.356;10.340;2022-12-18T03:21:39;50.40;;;28.47;;
27921;SDS011;15261;50.356;10.340;2022-12-18T03:24:08;47.23;;;25.80;;
27921;SDS011;15261;50.356;10.340;2022-12-18T03:26:36;35.60;;;20.53;;
27921;SDS011;15261;50.356;10.340;2022-12-18T03:29:21;33.33;;;19.13;;
27921;SDS011;15261;50.356;10.340;2022-12-18T03:31:53;36.63;;;20.80;;
27921;SDS011;15261;50.356;10.340;2022-12-18T03:34:24;31.77;;;19.03;;
27921;SDS011;15261;50.356;10.340;2022-12-18T03:36:57;35.17;;;20.30;;
27921;SDS011;15261;50.356;10.340;2022-12-18T03:39:23;30.07;;;18.37;;
27921;SDS011;15261;50.356;10.340;2022-12-18T03:45:10;34.07;;;18.93;;
27921;SDS011;15261;50.356;10.340;2022-12-18T03:53:05;34.33;;;17.97;;
27921;SDS011;15261;50.356;10.340;2022-12-18T03:55:40;29.97;;;17.00;;
27921;SDS011;15261;50.356;10.340;2022-12-18T03:58:08;31.23;;;17.87;;
27921;SDS011;15261;50.356;10.340;2022-12-18T04:00:38;29.67;;;16.57;;
27921;SDS011;15261;50.356;10.340;2022-12-18T04:03:04;32.83;;;18.33;;
27921;SDS011;15261;50.356;10.340;2022-12-18T04:05:33;30.43;;;17.60;;
27921;SDS011;15261;50.356;10.340;2022-12-18T04:08:00;27.93;;;17.10;;
27921;SDS011;15261;50.356;10.340;2022-12-18T04:10:27;63.47;;;32.13;;
27921;SDS011;15261;50.356;10.340;2022-12-18T04:12:55;37.53;;;20.37;;
27921;SDS011;15261;50.356;10.340;2022-12-18T04:15:21;44.50;;;23.07;;
27921;SDS011;15261;50.356;10.340;2022-12-18T04:17:47;35.57;;;20.63;;
27921;SDS011;15261;50.356;10.340;2022-12-18T04:20:14;40.77;;;19.77;;
27921;SDS011;15261;50.356;10.340;2022-12-18T04:22:39;35.63;;;18.53;;
27921;SDS011;15261;50.356;10.340;2022-12-18T04:25:05;33.47;;;17.73;;
27921;SDS011;15261;50.356;10.340;2022-12-18T04:27:31;33.80;;;19.03;;
27921;SDS011;15261;50.356;10.340;2022-12-18T04:29:56;34.73;;;18.67;;
27921;SDS011;15261;50.356;10.340;2022-12-18T04:32:22;34.40;;;19.30;;
27921;SDS011;15261;50.356;10.340;2022-12-18T04:34:47;36.57;;;18.37;;
27921;SDS011;15261;50.356;10.340;2022-12-18T04:37:13;34.33;;;18.37;;
27921;SDS011;15261;50.356;10.340;2022-12-18T04:39:38;36.90;;;18.40;;
27921;SDS011;15261;50.356;10.340;2022-12-18T04:42:04;37.17;;;18.43;;
27921;SDS011;15261;50.356;10.340;2022-12-18T04:44:30;34.50;;;18.47;;
27921;SDS011;15261;50.356;10.340;2022-12-18T04:46:55;35.57;;;18.63;;
27921;SDS011;15261;50.356;10.340;2022-12-18T04:49:21;34.93;;;17.60;;
27921;SDS011;15261;50.356;10.340;2022-12-18T04:51:47;34.80;;;18.53;;
27921;SDS011;15261;50.356;10.340;2022-12-18T04:54:12;31.97;;;17.43;;
27921;SDS011;15261;50.356;10.340;2022-12-18T04:56:38;35.60;;;17.67;;
27921;SDS011;15261;50.356;10.340;2022-12-18T04:59:04;33.57;;;17.27;;
27921;SDS011;15261;50.356;10.340;2022-12-18T05:01:30;33.20;;;17.57;;
27921;SDS011;15261;50.356;10.340;2022-12-18T05:03:58;35.07;;;17.60;;
27921;SDS011;15261;50.356;10.340;2022-12-18T05:06:24;33.73;;;17.67;;
27921;SDS011;15261;50.356;10.340;2022-12-18T05:08:49;31.43;;;17.50;;
27921;SDS011;15261;50.356;10.340;2022-12-18T05:11:15;52.50;;;27.80;;
27921;SDS011;15261;50.356;10.340;2022-12-18T05:13:41;84.23;;;41.63;;
27921;SDS011;15261;50.356;10.340;2022-12-18T05:16:07;50.53;;;26.87;;
27921;SDS011;15261;50.356;10.340;2022-12-18T05:18:33;43.73;;;23.37;;
27921;SDS011;15261;50.356;10.340;2022-12-18T05:20:59;40.20;;;22.03;;
27921;SDS011;15261;50.356;10.340;2022-12-18T05:23:25;36.07;;;19.70;;
27921;SDS011;15261;50.356;10.340;2022-12-18T05:25:55;36.50;;;19.30;;
27921;SDS011;15261;50.356;10.340;2022-12-18T05:28:25;33.57;;;19.93;;
27921;SDS011;15261;50.356;10.340;2022-12-18T05:30:53;32.53;;;19.13;;
27921;SDS011;15261;50.356;10.340;2022-12-18T05:33:21;37.87;;;19.60;;
27921;SDS011;15261;50.356;10.340;2022-12-18T05:35:51;37.20;;;21.67;;
27921;SDS011;15261;50.356;10.340;2022-12-18T05:38:18;38.33;;;20.70;;
27921;SDS011;15261;50.356;10.340;2022-12-18T05:40:45;38.07;;;20.47;;
27921;SDS011;15261;50.356;10.340;2022-12-18T05:43:25;33.97;;;19.97;;
27921;SDS011;15261;50.356;10.340;2022-12-18T05:45:51;35.07;;;19.60;;
27921;SDS011;15261;50.356;10.340;2022-12-18T05:48:17;38.27;;;23.47;;
27921;SDS011;15261;50.356;10.340;2022-12-18T05:50:44;40.73;;;22.13;;
27921;SDS011;15261;50.356;10.340;2022-12-18T05:53:11;34.70;;;19.53;;
27921;SDS011;15261;50.356;10.340;2022-12-18T05:55:38;33.87;;;17.73;;
27921;SDS011;15261;50.356;10.340;2022-12-18T05:58:06;33.93;;;18.90;;
27921;SDS011;15261;50.356;10.340;2022-12-18T06:00:33;34.87;;;18.23;;
27921;SDS011;15261;50.356;10.340;2022-12-18T06:03:04;42.43;;;18.77;;
27921;SDS011;15261;50.356;10.340;2022-12-18T06:05:49;29.47;;;16.57;;
27921;SDS011;15261;50.356;10.340;2022-12-18T06:08:15;29.87;;;16.80;;
27921;SDS011;15261;50.356;10.340;2022-12-18T06:10:41;30.50;;;16.63;;
27921;SDS011;15261;50.356;10.340;2022-12-18T06:13:06;29.13;;;15.77;;
27921;SDS011;15261;50.356;10.340;2022-12-18T06:15:32;28.57;;;16.17;;
27921;SDS011;15261;50.356;10.340;2022-12-18T06:18:00;29.77;;;16.00;;
27921;SDS011;15261;50.356;10.340;2022-12-18T06:20:26;28.83;;;15.57;;
27921;SDS011;15261;50.356;10.340;2022-12-18T06:23:02;30.43;;;17.43;;
27921;SDS011;15261;50.356;10.340;2022-12-18T06:25:27;31.50;;;17.20;;
27921;SDS011;15261;50.356;10.340;2022-12-18T06:27:53;35.77;;;18.17;;
27921;SDS011;15261;50.356;10.340;2022-12-18T06:30:19;27.07;;;15.80;;
27921;SDS011;15261;50.356;10.340;2022-12-18T06:32:44;28.03;;;16.20;;
27921;SDS011;15261;50.356;10.340;2022-12-18T06:35:10;29.20;;;16.73;;
27921;SDS011;15261;50.356;10.340;2022-12-18T06:37:35;38.00;;;19.77;;
27921;SDS011;15261;50.356;10.340;2022-12-18T06:40:01;30.20;;;17.87;;
27921;SDS011;15261;50.356;10.340;2022-12-18T06:42:28;30.93;;;17.03;;
27921;SDS011;15261;50.356;10.340;2022-12-18T06:44:54;28.57;;;15.90;;
27921;SDS011;15261;50.356;10.340;2022-12-18T06:47:19;24.17;;;14.23;;
27921;SDS011;15261;50.356;10.340;2022-12-18T06:49:45;30.40;;;17.37;;
27921;SDS011;15261;50.356;10.340;2022-12-18T06:52:10;37.60;;;18.90;;
27921;SDS011;15261;50.356;10.340;2022-12-18T06:54:36;33.93;;;18.93;;
27921;SDS011;15261;50.356;10.340;2022-12-18T06:57:01;33.23;;;19.47;;
27921;SDS011;15261;50.356;10.340;2022-12-18T06:59:27;33.23;;;19.87;;
27921;SDS011;15261;50.356;10.340;2022-12-18T07:01:53;63.53;;;36.37;;
27921;SDS011;15261;50.356;10.340;2022-12-18T07:04:18;51.77;;;27.40;;
27921;SDS011;15261;50.356;10.340;2022-12-18T07:06:44;45.00;;;25.83;;
27921;SDS011;15261;50.356;10.340;2022-12-18T07:09:09;58.43;;;31.97;;
27921;SDS011;15261;50.356;10.340;2022-12-18T07:11:35;99.60;;;50.43;;
27921;SDS011;15261;50.356;10.340;2022-12-18T07:14:00;46.23;;;24.27;;
27921;SDS011;15261;50.356;10.340;2022-12-18T07:16:26;37.63;;;21.00;;
27921;SDS011;15261;50.356;10.340;2022-12-18T07:18:54;39.07;;;21.00;;
27921;SDS011;15261;50.356;10.340;2022-12-18T07:21:21;33.53;;;18.27;;
27921;SDS011;15261;50.356;10.340;2022-12-18T07:23:47;32.00;;;19.10;;
27921;SDS011;15261;50.356;10.340;2022-12-18T07:26:13;36.80;;;20.90;;
27921;SDS011;15261;50.356;10.340;2022-12-18T07:28:40;39.03;;;20.50;;
27921;SDS011;15261;50.356;10.340;2022-12-18T07:31:08;37.07;;;20.00;;
27921;SDS011;15261;50.356;10.340;2022-12-18T07:33:38;50.53;;;23.10;;
27921;SDS011;15261;50.356;10.340;2022-12-18T07:36:04;51.43;;;24.57;;
27921;SDS011;15261;50.356;10.340;2022-12-18T07:38:32;59.40;;;28.63;;
27921;SDS011;15261;50.356;10.340;2022-12-18T07:41:02;53.03;;;26.83;;
27921;SDS011;15261;50.356;10.340;2022-12-18T07:43:30;42.83;;;21.83;;
27921;SDS011;15261;50.356;10.340;2022-12-18T07:45:56;41.10;;;23.50;;
27921;SDS011;15261;50.356;10.340;2022-12-18T07:48:21;44.93;;;22.40;;
27921;SDS011;15261;50.356;10.340;2022-12-18T07:50:47;43.67;;;21.43;;
27921;SDS011;15261;50.356;10.340;2022-12-18T07:53:13;41.37;;;20.43;;
27921;SDS011;15261;50.356;10.340;2022-12-18T07:55:39;35.00;;;19.40;;
27921;SDS011;15261;50.356;10.340;2022-12-18T07:58:06;37.43;;;18.70;;
27921;SDS011;15261;50.356;10.340;2022-12-18T08:00:32;39.10;;;20.60;;
27921;SDS011;15261;50.356;10.340;2022-12-18T08:02:58;40.20;;;21.80;;
27921;SDS011;15261;50.356;10.340;2022-12-18T08:05:23;43.23;;;22.83;;
27921;SDS011;15261;50.356;10.340;2022-12-18T08:07:49;40.93;;;22.17;;
27921;SDS011;15261;50.356;10.340;2022-12-18T08:10:15;55.90;;;28.77;;
27921;SDS011;15261;50.356;10.340;2022-12-18T08:15:32;37.50;;;21.23;;
27921;SDS011;15261;50.356;10.340;2022-12-18T08:18:14;38.13;;;20.73;;
27921;SDS011;15261;50.356;10.340;2022-12-18T08:24:01;39.27;;;21.30;;
27921;SDS011;15261;50.356;10.340;2022-12-18T08:29:31;41.20;;;22.57;;
27921;SDS011;15261;50.356;10.340;2022-12-18T08:34:55;43.27;;;23.00;;
27921;SDS011;15261;50.356;10.340;2022-12-18T08:39:50;59.47;;;31.10;;
27921;SDS011;15261;50.356;10.340;2022-12-18T08:45:37;73.30;;;36.40;;
27921;SDS011;15261;50.356;10.340;2022-12-18T08:48:02;95.83;;;49.70;;
27921;SDS011;15261;50.356;10.340;2022-12-18T08:50:28;57.87;;;34.37;;
27921;SDS011;15261;50.356;10.340;2022-12-18T08:52:54;45.23;;;25.20;;
27921;SDS011;15261;50.356;10.340;2022-12-18T08:55:19;107.70;;;56.47;;
27921;SDS011;15261;50.356;10.340;2022-12-18T08:58:02;48.13;;;26.50;;
27921;SDS011;15261;50.356;10.340;2022-12-18T09:03:43;35.00;;;18.60;;
27921;SDS011;15261;50.356;10.340;2022-12-18T09:06:16;34.63;;;20.47;;
27921;SDS011;15261;50.356;10.340;2022-12-18T09:08:44;37.83;;;23.87;;
27921;SDS011;15261;50.356;10.340;2022-12-18T09:14:17;33.53;;;20.83;;
27921;SDS011;15261;50.356;10.340;2022-12-18T09:16:53;40.27;;;24.87;;
27921;SDS011;15261;50.356;10.340;2022-12-18T09:22:18;33.50;;;20.87;;
27921;SDS011;15261;50.356;10.340;2022-12-18T09:24:43;31.77;;;19.17;;
27921;SDS011;15261;50.356;10.340;2022-12-18T09:27:09;35.90;;;19.50;;
27921;SDS011;15261;50.356;10.340;2022-12-18T09:29:35;38.93;;;22.87;;
27921;SDS011;15261;50.356;10.340;2022-12-18T09:32:01;39.83;;;23.90;;
27921;SDS011;15261;50.356;10.340;2022-12-18T09:34:40;41.13;;;23.73;;
27921;SDS011;15261;50.356;10.340;2022-12-18T09:37:06;36.20;;;22.30;;
27921;SDS011;15261;50.356;10.340;2022-12-18T09:42:25;36.07;;;22.80;;
27921;SDS011;15261;50.356;10.340;2022-12-18T09:44:53;39.13;;;22.70;;
27921;SDS011;15261;50.356;10.340;2022-12-18T09:53:22;38.17;;;23.83;;
27921;SDS011;15261;50.356;10.340;2022-12-18T09:55:51;46.07;;;23.73;;
27921;SDS011;15261;50.356;10.340;2022-12-18T10:01:27;44.20;;;27.77;;
27921;SDS011;15261;50.356;10.340;2022-12-18T10:03:53;39.70;;;23.93;;
27921;SDS011;15261;50.356;10.340;2022-12-18T10:06:35;40.93;;;25.23;;
27921;SDS011;15261;50.356;10.340;2022-12-18T10:09:20;36.13;;;21.23;;
27921;SDS011;15261;50.356;10.340;2022-12-18T10:15:28;37.20;;;20.90;;
27921;SDS011;15261;50.356;10.340;2022-12-18T10:21:18;37.83;;;23.07;;
27921;SDS011;15261;50.356;10.340;2022-12-18T10:23:51;40.43;;;24.50;;
27921;SDS011;15261;50.356;10.340;2022-12-18T10:26:42;40.87;;;24.87;;
27921;SDS011;15261;50.356;10.340;2022-12-18T10:29:12;44.80;;;26.63;;
27921;SDS011;15261;50.356;10.340;2022-12-18T10:31:40;39.37;;;27.70;;
27921;SDS011;15261;50.356;10.340;2022-12-18T10:34:09;42.33;;;28.83;;
27921;SDS011;15261;50.356;10.340;2022-12-18T10:43:03;47.43;;;31.03;;
27921;SDS011;15261;50.356;10.340;2022-12-18T10:45:39;47.07;;;31.77;;
27921;SDS011;15261;50.356;10.340;2022-12-18T10:48:17;42.90;;;28.27;;
27921;SDS011;15261;50.356;10.340;2022-12-18T10:50:53;44.07;;;28.33;;
27921;SDS011;15261;50.356;10.340;2022-12-18T10:53:23;42.87;;;26.77;;
27921;SDS011;15261;50.356;10.340;2022-12-18T10:55:52;46.10;;;27.60;;
27921;SDS011;15261;50.356;10.340;2022-12-18T10:58:27;42.63;;;25.67;;
27921;SDS011;15261;50.356;10.340;2022-12-18T11:01:15;43.40;;;25.80;;
27921;SDS011;15261;50.356;10.340;2022-12-18T11:04:04;44.53;;;28.73;;
27921;SDS011;15261;50.356;10.340;2022-12-18T11:06:33;39.87;;;23.37;;
27921;SDS011;15261;50.356;10.340;2022-12-18T11:09:34;40.47;;;25.67;;
27921;SDS011;15261;50.356;10.340;2022-12-18T11:24:30;36.83;;;21.63;;
27921;SDS011;15261;50.356;10.340;2022-12-18T11:27:17;36.07;;;22.40;;
27921;SDS011;15261;50.356;10.340;2022-12-18T11:33:09;37.30;;;21.87;;
27921;SDS011;15261;50.356;10.340;2022-12-18T11:38:54;45.53;;;25.77;;
27921;SDS011;15261;50.356;10.340;2022-12-18T11:44:22;41.53;;;24.80;;
27921;SDS011;15261;50.356;10.340;2022-12-18T11:46:55;34.33;;;20.67;;
27921;SDS011;15261;50.356;10.340;2022-12-18T11:49:34;39.13;;;23.63;;
27921;SDS011;15261;50.356;10.340;2022-12-18T11:54:37;35.40;;;22.63;;
27921;SDS011;15261;50.356;10.340;2022-12-18T12:38:29;32.37;;;20.93;;
27921;SDS011;15261;50.356;10.340;2022-12-18T12:41:04;31.87;;;21.23;;
27921;SDS011;15261;50.356;10.340;2022-12-18T12:43:56;38.43;;;24.37;;
27921;SDS011;15261;50.356;10.340;2022-12-18T12:52:20;34.47;;;19.83;;
27921;SDS011;15261;50.356;10.340;2022-12-18T12:55:16;34.53;;;20.37;;
27921;SDS011;15261;50.356;10.340;2022-12-18T13:19:30;32.37;;;19.47;;
27921;SDS011;15261;50.356;10.340;2022-12-18T13:22:12;29.60;;;17.73;;
27921;SDS011;15261;50.356;10.340;2022-12-18T13:30:43;32.00;;;18.10;;
27921;SDS011;15261;50.356;10.340;2022-12-18T13:45:00;33.23;;;19.50;;
27921;SDS011;15261;50.356;10.340;2022-12-18T13:47:40;32.73;;;19.17;;
27921;SDS011;15261;50.356;10.340;2022-12-18T13:50:09;34.87;;;19.03;;
27921;SDS011;15261;50.356;10.340;2022-12-18T13:55:59;32.70;;;19.83;;
27921;SDS011;15261;50.356;10.340;2022-12-18T13:58:26;34.60;;;19.93;;
27921;SDS011;15261;50.356;10.340;2022-12-18T14:00:52;38.17;;;20.87;;
27921;SDS011;15261;50.356;10.340;2022-12-18T14:03:19;33.93;;;21.03;;
27921;SDS011;15261;50.356;10.340;2022-12-18T14:05:58;32.17;;;21.17;;
27921;SDS011;15261;50.356;10.340;2022-12-18T14:11:56;34.30;;;20.73;;
27921;SDS011;15261;50.356;10.340;2022-12-18T14:21:35;36.47;;;22.23;;
27921;SDS011;15261;50.356;10.340;2022-12-18T14:24:13;40.43;;;22.87;;
27921;SDS011;15261;50.356;10.340;2022-12-18T14:33:27;34.03;;;22.67;;
27921;SDS011;15261;50.356;10.340;2022-12-18T14:41:28;41.43;;;24.47;;
27921;SDS011;15261;50.356;10.340;2022-12-18T14:43:54;41.63;;;23.70;;
27921;SDS011;15261;50.356;10.340;2022-12-18T14:46:35;37.83;;;23.87;;
27921;SDS011;15261;50.356;10.340;2022-12-18T14:54:52;43.83;;;27.90;;
27921;SDS011;15261;50.356;10.340;2022-12-18T14:57:22;51.47;;;27.70;;
27921;SDS011;15261;50.356;10.340;2022-12-18T15:00:06;45.83;;;26.80;;
27921;SDS011;15261;50.356;10.340;2022-12-18T15:02:40;38.20;;;22.73;;
27921;SDS011;15261;50.356;10.340;2022-12-18T15:08:24;40.17;;;23.93;;
27921;SDS011;15261;50.356;10.340;2022-12-18T15:14:30;39.63;;;22.47;;
27921;SDS011;15261;50.356;10.340;2022-12-18T15:20:13;36.73;;;22.77;;
27921;SDS011;15261;50.356;10.340;2022-12-18T15:25:36;42.43;;;25.37;;
27921;SDS011;15261;50.356;10.340;2022-12-18T15:31:31;44.10;;;26.20;;
27921;SDS011;15261;50.356;10.340;2022-12-18T15:36:32;52.63;;;31.73;;
27921;SDS011;15261;50.356;10.340;2022-12-18T15:39:19;64.97;;;40.07;;
27921;SDS011;15261;50.356;10.340;2022-12-18T15:41:55;49.03;;;30.00;;
27921;SDS011;15261;50.356;10.340;2022-12-18T15:44:46;48.57;;;31.50;;
27921;SDS011;15261;50.356;10.340;2022-12-18T15:47:13;54.03;;;33.43;;
27921;SDS011;15261;50.356;10.340;2022-12-18T15:49:38;48.23;;;31.93;;
27921;SDS011;15261;50.356;10.340;2022-12-18T15:52:04;47.33;;;31.37;;
27921;SDS011;15261;50.356;10.340;2022-12-18T15:54:30;50.47;;;30.63;;
27921;SDS011;15261;50.356;10.340;2022-12-18T15:57:14;50.23;;;31.13;;
27921;SDS011;15261;50.356;10.340;2022-12-18T15:59:55;47.23;;;30.83;;
27921;SDS011;15261;50.356;10.340;2022-12-18T16:02:33;49.23;;;32.13;;
27921;SDS011;15261;50.356;10.340;2022-12-18T16:10:44;49.47;;;29.60;;
27921;SDS011;15261;50.356;10.340;2022-12-18T16:13:12;46.33;;;29.50;;
27921;SDS011;15261;50.356;10.340;2022-12-18T16:15:53;47.10;;;29.53;;
27921;SDS011;15261;50.356;10.340;2022-12-18T16:18:19;42.87;;;28.07;;
27921;SDS011;15261;50.356;10.340;2022-12-18T16:20:44;54.33;;;31.03;;
27921;SDS011;15261;50.356;10.340;2022-12-18T16:23:19;50.20;;;31.50;;
27921;SDS011;15261;50.356;10.340;2022-12-18T16:25:46;53.17;;;34.20;;
27921;SDS011;15261;50.356;10.340;2022-12-18T16:28:28;49.63;;;30.20;;
27921;SDS011;15261;50.356;10.340;2022-12-18T16:33:48;44.87;;;27.63;;
27921;SDS011;15261;50.356;10.340;2022-12-18T16:36:40;55.33;;;31.83;;
27921;SDS011;15261;50.356;10.340;2022-12-18T16:39:11;45.87;;;28.37;;
27921;SDS011;15261;50.356;10.340;2022-12-18T16:41:56;54.70;;;32.07;;
27921;SDS011;15261;50.356;10.340;2022-12-18T16:44:23;63.50;;;41.47;;
27921;SDS011;15261;50.356;10.340;2022-12-18T16:46:49;58.63;;;38.00;;
27921;SDS011;15261;50.356;10.340;2022-12-18T16:49:24;53.40;;;34.90;;
27921;SDS011;15261;50.356;10.340;2022-12-18T16:52:01;73.33;;;43.30;;
27921;SDS011;15261;50.356;10.340;2022-12-18T16:54:28;67.03;;;40.40;;
27921;SDS011;15261;50.356;10.340;2022-12-18T16:56:57;68.87;;;39.97;;
27921;SDS011;15261;50.356;10.340;2022-12-18T17:09:04;51.87;;;29.17;;
27921;SDS011;15261;50.356;10.340;2022-12-18T17:11:47;45.77;;;28.00;;
27921;SDS011;15261;50.356;10.340;2022-12-18T17:23:22;69.03;;;40.90;;
27921;SDS011;15261;50.356;10.340;2022-12-18T17:25:48;60.50;;;35.80;;
27921;SDS011;15261;50.356;10.340;2022-12-18T17:34:28;55.30;;;32.93;;
27921;SDS011;15261;50.356;10.340;2022-12-18T17:36:54;58.47;;;35.50;;
27921;SDS011;15261;50.356;10.340;2022-12-18T17:39:19;55.47;;;33.43;;
27921;SDS011;15261;50.356;10.340;2022-12-18T17:41:45;59.83;;;35.17;;
27921;SDS011;15261;50.356;10.340;2022-12-18T17:46:59;52.23;;;32.20;;
27921;SDS011;15261;50.356;10.340;2022-12-18T17:52:09;34.60;;;20.60;;
27921;SDS011;15261;50.356;10.340;2022-12-18T17:54:35;37.63;;;23.63;;
27921;SDS011;15261;50.356;10.340;2022-12-18T17:57:18;39.60;;;25.30;;
27921;SDS011;15261;50.356;10.340;2022-12-18T17:59:44;54.60;;;32.40;;
27921;SDS011;15261;50.356;10.340;2022-12-18T18:05:11;98.30;;;64.23;;
27921;SDS011;15261;50.356;10.340;2022-12-18T18:11:02;48.47;;;30.63;;
27921;SDS011;15261;50.356;10.340;2022-12-18T18:13:51;47.60;;;30.67;;
27921;SDS011;15261;50.356;10.340;2022-12-18T18:22:11;36.47;;;22.93;;
27921;SDS011;15261;50.356;10.340;2022-12-18T18:33:16;45.77;;;29.77;;
27921;SDS011;15261;50.356;10.340;2022-12-18T18:35:42;44.77;;;28.90;;
27921;SDS011;15261;50.356;10.340;2022-12-18T18:38:07;54.43;;;33.90;;
27921;SDS011;15261;50.356;10.340;2022-12-18T18:40:34;37.57;;;24.07;;
27921;SDS011;15261;50.356;10.340;2022-12-18T18:45:31;47.00;;;29.70;;
27921;SDS011;15261;50.356;10.340;2022-12-18T18:51:06;33.93;;;22.73;;
27921;SDS011;15261;50.356;10.340;2022-12-18T18:53:40;38.77;;;25.87;;
27921;SDS011;15261;50.356;10.340;2022-12-18T18:56:17;38.33;;;24.90;;
27921;SDS011;15261;50.356;10.340;2022-12-18T18:58:51;43.87;;;26.27;;
27921;SDS011;15261;50.356;10.340;2022-12-18T19:16:03;42.03;;;28.30;;
27921;SDS011;15261;50.356;10.340;2022-12-18T19:21:53;41.53;;;25.53;;
27921;SDS011;15261;50.356;10.340;2022-12-18T19:24:18;40.77;;;24.37;;
27921;SDS011;15261;50.356;10.340;2022-12-18T19:29:56;42.53;;;24.77;;
27921;SDS011;15261;50.356;10.340;2022-12-18T19:32:26;42.57;;;25.93;;
27921;SDS011;15261;50.356;10.340;2022-12-18T19:43:40;44.93;;;27.53;;
27921;SDS011;15261;50.356;10.340;2022-12-18T19:46:16;39.70;;;24.67;;
27921;SDS011;15261;50.356;10.340;2022-12-18T19:48:47;35.27;;;22.57;;
27921;SDS011;15261;50.356;10.340;2022-12-18T19:51:16;37.53;;;21.50;;
27921;SDS011;15261;50.356;10.340;2022-12-18T19:56:22;36.30;;;22.77;;
27921;SDS011;15261;50.356;10.340;2022-12-18T20:07:16;42.43;;;25.87;;
27921;SDS011;15261;50.356;10.340;2022-12-18T20:09:53;45.87;;;27.23;;
27921;SDS011;15261;50.356;10.340;2022-12-18T20:12:19;47.30;;;28.07;;
27921;SDS011;15261;50.356;10.340;2022-12-18T20:14:58;50.27;;;28.80;;
27921;SDS011;15261;50.356;10.340;2022-12-18T20:17:36;44.47;;;27.53;;
27921;SDS011;15261;50.356;10.340;2022-12-18T20:20:07;44.63;;;28.07;;
27921;SDS011;15261;50.356;10.340;2022-12-18T20:22:33;56.40;;;32.40;;
27921;SDS011;15261;50.356;10.340;2022-12-18T20:25:00;51.07;;;31.90;;
27921;SDS011;15261;50.356;10.340;2022-12-18T20:27:27;41.53;;;26.93;;
27921;SDS011;15261;50.356;10.340;2022-12-18T20:29:53;41.67;;;26.17;;
27921;SDS011;15261;50.356;10.340;2022-12-18T20:32:20;41.87;;;27.07;;
27921;SDS011;15261;50.356;10.340;2022-12-18T20:34:47;41.33;;;25.27;;
27921;SDS011;15261;50.356;10.340;2022-12-18T20:37:13;37.77;;;23.73;;